Hallandale Beach, Florida
Current Conditions -  °F | °C
As of 12:53 PM on Friday 28 Nov 2014 (Local Time) from KHWO Reporting Station
Clear Clear  
Wind Chill: 70°   Ceiling: Unl
Heat Index: 70°   Visibility: 10mi
Dew Point: 50°   Wind: 12mph
Humidity: 49%   Direction: 350°N
Pressure: 30.2"   Gusts: 20mph
Location:  25.9859°N, 80.1469°W
Report Text: KHWO 281753Z 35010G17KT 10SM CLR 21/10 A3020 RMK AO2 SLP225 T02110100 10217 20100 58023
Loading
Personal Weather Stations






























Interactive Weather Map New forecast layout! Learn more

10-Day Weather Forecast

Advertisements
Track Severe Weather on mobile